sensor_id;sensor_type;location;lat;lon;timestamp;temperature;humidity
23717;DHT22;22094;52.130;5.598;2022-10-30T00:00:39;14.90;99.90
23717;DHT22;22094;52.130;5.598;2022-10-30T00:03:05;14.90;99.90
23717;DHT22;22094;52.130;5.598;2022-10-30T00:05:30;15.00;99.90
23717;DHT22;22094;52.130;5.598;2022-10-30T00:07:57;15.00;99.90
23717;DHT22;22094;52.130;5.598;2022-10-30T00:10:23;15.00;99.90
23717;DHT22;22094;52.130;5.598;2022-10-30T00:12:49;15.00;99.90
23717;DHT22;22094;52.130;5.598;2022-10-30T00:15:15;15.00;99.90
23717;DHT22;22094;52.130;5.598;2022-10-30T00:17:40;14.90;99.90
23717;DHT22;22094;52.130;5.598;2022-10-30T00:20:06;14.90;99.90
23717;DHT22;22094;52.130;5.598;2022-10-30T00:22:34;14.90;99.90
23717;DHT22;22094;52.130;5.598;2022-10-30T00:24:59;14.80;99.90
23717;DHT22;22094;52.130;5.598;2022-10-30T00:27:25;14.70;99.90
23717;DHT22;22094;52.130;5.598;2022-10-30T00:29:51;14.90;99.90
23717;DHT22;22094;52.130;5.598;2022-10-30T00:32:16;14.80;99.90
23717;DHT22;22094;52.130;5.598;2022-10-30T00:34:42;14.80;99.90
23717;DHT22;22094;52.130;5.598;2022-10-30T00:37:07;14.70;99.90
23717;DHT22;22094;52.130;5.598;2022-10-30T00:39:33;15.10;99.90
23717;DHT22;22094;52.130;5.598;2022-10-30T00:41:58;14.90;99.90
23717;DHT22;22094;52.130;5.598;2022-10-30T00:47:05;14.70;99.90
23717;DHT22;22094;52.130;5.598;2022-10-30T00:49:37;14.70;99.90
23717;DHT22;22094;52.130;5.598;2022-10-30T00:52:06;14.60;99.90
23717;DHT22;22094;52.130;5.598;2022-10-30T00:54:33;14.50;99.90
23717;DHT22;22094;52.130;5.598;2022-10-30T00:57:01;14.50;99.90
23717;DHT22;22094;52.130;5.598;2022-10-30T00:59:29;14.50;99.90
23717;DHT22;22094;52.130;5.598;2022-10-30T01:01:57;14.40;99.90
23717;DHT22;22094;52.130;5.598;2022-10-30T01:04:23;14.40;99.90
23717;DHT22;22094;52.130;5.598;2022-10-30T01:06:50;14.40;99.90
23717;DHT22;22094;52.130;5.598;2022-10-30T01:09:18;14.40;99.90
23717;DHT22;22094;52.130;5.598;2022-10-30T01:11:44;14.30;99.90
23717;DHT22;22094;52.130;5.598;2022-10-30T01:14:11;14.30;99.90
23717;DHT22;22094;52.130;5.598;2022-10-30T01:16:53;14.30;99.90
23717;DHT22;22094;52.130;5.598;2022-10-30T01:19:33;14.30;99.90
23717;DHT22;22094;52.130;5.598;2022-10-30T01:22:26;14.40;99.90
23717;DHT22;22094;52.130;5.598;2022-10-30T01:25:02;14.30;99.90
23717;DHT22;22094;52.130;5.598;2022-10-30T01:30:19;14.20;99.90
23717;DHT22;22094;52.130;5.598;2022-10-30T01:35:39;14.10;99.90
23717;DHT22;22094;52.130;5.598;2022-10-30T01:38:28;14.10;99.90
23717;DHT22;22094;52.130;5.598;2022-10-30T01:40:55;14.10;99.90
23717;DHT22;22094;52.130;5.598;2022-10-30T01:43:21;14.10;99.90
23717;DHT22;22094;52.130;5.598;2022-10-30T01:46:11;14.20;99.90
23717;DHT22;22094;52.130;5.598;2022-10-30T01:49:01;14.20;99.90
23717;DHT22;22094;52.130;5.598;2022-10-30T01:51:44;14.30;99.90
23717;DHT22;22094;52.130;5.598;2022-10-30T02:02:30;14.20;99.90
23717;DHT22;22094;52.130;5.598;2022-10-30T02:04:57;14.20;99.90
23717;DHT22;22094;52.130;5.598;2022-10-30T02:07:23;14.20;99.90
23717;DHT22;22094;52.130;5.598;2022-10-30T02:09:53;14.10;99.90
23717;DHT22;22094;52.130;5.598;2022-10-30T02:12:20;14.10;99.90
23717;DHT22;22094;52.130;5.598;2022-10-30T02:14:48;14.10;99.90
23717;DHT22;22094;52.130;5.598;2022-10-30T02:17:19;14.10;99.90
23717;DHT22;22094;52.130;5.598;2022-10-30T02:19:47;14.10;99.90
23717;DHT22;22094;52.130;5.598;2022-10-30T02:22:13;14.20;99.90
23717;DHT22;22094;52.130;5.598;2022-10-30T02:24:38;14.10;99.90
23717;DHT22;22094;52.130;5.598;2022-10-30T02:27:04;14.20;99.90
23717;DHT22;22094;52.130;5.598;2022-10-30T02:29:29;14.10;99.90
23717;DHT22;22094;52.130;5.598;2022-10-30T02:31:55;14.10;99.90
23717;DHT22;22094;52.130;5.598;2022-10-30T02:34:21;13.90;99.90
23717;DHT22;22094;52.130;5.598;2022-10-30T02:36:46;13.80;99.90
23717;DHT22;22094;52.130;5.598;2022-10-30T02:39:12;13.70;99.90
23717;DHT22;22094;52.130;5.598;2022-10-30T02:41:37;13.70;99.90
23717;DHT22;22094;52.130;5.598;2022-10-30T02:44:03;13.60;99.90
23717;DHT22;22094;52.130;5.598;2022-10-30T02:46:31;13.50;99.90
23717;DHT22;22094;52.130;5.598;2022-10-30T02:48:56;13.50;99.90
23717;DHT22;22094;52.130;5.598;2022-10-30T02:51:22;13.50;99.90
23717;DHT22;22094;52.130;5.598;2022-10-30T02:53:48;13.50;99.90
23717;DHT22;22094;52.130;5.598;2022-10-30T02:56:14;13.50;99.90
23717;DHT22;22094;52.130;5.598;2022-10-30T02:58:40;13.50;99.90
23717;DHT22;22094;52.130;5.598;2022-10-30T03:01:11;13.50;99.90
23717;DHT22;22094;52.130;5.598;2022-10-30T03:03:37;13.50;99.90
23717;DHT22;22094;52.130;5.598;2022-10-30T03:06:04;13.50;99.90
23717;DHT22;22094;52.130;5.598;2022-10-30T03:08:31;13.40;99.90
23717;DHT22;22094;52.130;5.598;2022-10-30T03:13:30;13.30;99.90
23717;DHT22;22094;52.130;5.598;2022-10-30T03:16:04;13.20;99.90
23717;DHT22;22094;52.130;5.598;2022-10-30T03:18:31;13.20;99.90
23717;DHT22;22094;52.130;5.598;2022-10-30T03:20:58;13.30;99.90
23717;DHT22;22094;52.130;5.598;2022-10-30T03:23:25;13.20;99.90
23717;DHT22;22094;52.130;5.598;2022-10-30T03:25:52;13.20;99.90
23717;DHT22;22094;52.130;5.598;2022-10-30T03:28:18;13.60;99.90
23717;DHT22;22094;52.130;5.598;2022-10-30T03:30:44;13.30;99.90
23717;DHT22;22094;52.130;5.598;2022-10-30T03:33:09;13.30;99.90
23717;DHT22;22094;52.130;5.598;2022-10-30T03:35:35;13.30;99.90
23717;DHT22;22094;52.130;5.598;2022-10-30T03:38:01;13.30;99.90
23717;DHT22;22094;52.130;5.598;2022-10-30T03:40:26;13.20;99.90
23717;DHT22;22094;52.130;5.598;2022-10-30T03:42:52;13.00;99.90
23717;DHT22;22094;52.130;5.598;2022-10-30T03:45:17;13.30;99.90
23717;DHT22;22094;52.130;5.598;2022-10-30T03:47:43;13.30;99.90
23717;DHT22;22094;52.130;5.598;2022-10-30T03:50:09;13.50;99.90
23717;DHT22;22094;52.130;5.598;2022-10-30T03:52:34;13.30;99.90
23717;DHT22;22094;52.130;5.598;2022-10-30T03:55:00;13.30;99.90
23717;DHT22;22094;52.130;5.598;2022-10-30T03:57:26;13.30;99.90
23717;DHT22;22094;52.130;5.598;2022-10-30T03:59:51;13.30;99.90
23717;DHT22;22094;52.130;5.598;2022-10-30T04:02:17;13.30;99.90
23717;DHT22;22094;52.130;5.598;2022-10-30T04:04:42;13.40;99.90
23717;DHT22;22094;52.130;5.598;2022-10-30T04:07:08;13.40;99.90
23717;DHT22;22094;52.130;5.598;2022-10-30T04:09:34;13.30;99.90
23717;DHT22;22094;52.130;5.598;2022-10-30T04:11:59;13.20;99.90
23717;DHT22;22094;52.130;5.598;2022-10-30T04:14:25;13.20;99.90
23717;DHT22;22094;52.130;5.598;2022-10-30T04:16:50;13.20;99.90
23717;DHT22;22094;52.130;5.598;2022-10-30T04:19:16;13.10;99.90
23717;DHT22;22094;52.130;5.598;2022-10-30T04:21:42;13.20;99.90
23717;DHT22;22094;52.130;5.598;2022-10-30T04:24:08;13.10;99.90
23717;DHT22;22094;52.130;5.598;2022-10-30T04:26:34;13.00;99.90
23717;DHT22;22094;52.130;5.598;2022-10-30T04:29:00;13.00;99.90
23717;DHT22;22094;52.130;5.598;2022-10-30T04:31:25;12.80;99.90
23717;DHT22;22094;52.130;5.598;2022-10-30T04:33:51;12.70;99.90
23717;DHT22;22094;52.130;5.598;2022-10-30T04:36:17;12.60;99.90
23717;DHT22;22094;52.130;5.598;2022-10-30T04:38:43;12.60;99.90
23717;DHT22;22094;52.130;5.598;2022-10-30T04:41:08;12.70;99.90
23717;DHT22;22094;52.130;5.598;2022-10-30T04:43:34;12.50;99.90
23717;DHT22;22094;52.130;5.598;2022-10-30T04:46:03;12.40;99.90
23717;DHT22;22094;52.130;5.598;2022-10-30T04:48:30;12.30;99.90
23717;DHT22;22094;52.130;5.598;2022-10-30T04:50:57;12.40;99.90
23717;DHT22;22094;52.130;5.598;2022-10-30T04:53:24;12.20;99.90
23717;DHT22;22094;52.130;5.598;2022-10-30T04:55:53;12.20;99.90
23717;DHT22;22094;52.130;5.598;2022-10-30T04:58:19;12.20;99.90
23717;DHT22;22094;52.130;5.598;2022-10-30T05:00:45;12.40;99.90
23717;DHT22;22094;52.130;5.598;2022-10-30T05:03:32;12.20;99.90
23717;DHT22;22094;52.130;5.598;2022-10-30T05:06:02;12.30;99.90
23717;DHT22;22094;52.130;5.598;2022-10-30T05:08:29;12.10;99.90
23717;DHT22;22094;52.130;5.598;2022-10-30T05:10:55;12.10;99.90
23717;DHT22;22094;52.130;5.598;2022-10-30T05:13:21;12.10;99.90
23717;DHT22;22094;52.130;5.598;2022-10-30T05:15:47;12.00;99.90
23717;DHT22;22094;52.130;5.598;2022-10-30T05:18:13;12.00;99.90
23717;DHT22;22094;52.130;5.598;2022-10-30T05:20:44;11.90;99.90
23717;DHT22;22094;52.130;5.598;2022-10-30T05:23:10;11.80;99.90
23717;DHT22;22094;52.130;5.598;2022-10-30T05:25:38;11.90;99.90
23717;DHT22;22094;52.130;5.598;2022-10-30T05:28:05;11.90;99.90
23717;DHT22;22094;52.130;5.598;2022-10-30T05:30:34;11.80;99.90
23717;DHT22;22094;52.130;5.598;2022-10-30T05:33:06;11.80;99.90
23717;DHT22;22094;52.130;5.598;2022-10-30T05:35:33;11.60;99.90
23717;DHT22;22094;52.130;5.598;2022-10-30T05:38:00;11.60;99.90
23717;DHT22;22094;52.130;5.598;2022-10-30T05:40:26;11.40;99.90
23717;DHT22;22094;52.130;5.598;2022-10-30T05:42:51;11.50;99.90
23717;DHT22;22094;52.130;5.598;2022-10-30T05:45:17;11.50;99.90
23717;DHT22;22094;52.130;5.598;2022-10-30T05:47:43;11.50;99.90
23717;DHT22;22094;52.130;5.598;2022-10-30T05:50:09;11.40;99.90
23717;DHT22;22094;52.130;5.598;2022-10-30T05:52:38;11.40;99.90
23717;DHT22;22094;52.130;5.598;2022-10-30T05:55:04;11.50;99.90
23717;DHT22;22094;52.130;5.598;2022-10-30T05:57:30;11.30;99.90
23717;DHT22;22094;52.130;5.598;2022-10-30T05:59:57;11.30;99.90
23717;DHT22;22094;52.130;5.598;2022-10-30T06:02:23;11.20;99.90
23717;DHT22;22094;52.130;5.598;2022-10-30T06:04:48;11.20;99.90
23717;DHT22;22094;52.130;5.598;2022-10-30T06:07:14;11.30;99.90
23717;DHT22;22094;52.130;5.598;2022-10-30T06:09:39;11.10;99.90
23717;DHT22;22094;52.130;5.598;2022-10-30T06:12:05;11.30;99.90
23717;DHT22;22094;52.130;5.598;2022-10-30T06:14:31;11.30;99.90
23717;DHT22;22094;52.130;5.598;2022-10-30T06:16:57;11.30;99.90
23717;DHT22;22094;52.130;5.598;2022-10-30T06:19:22;11.30;99.90
23717;DHT22;22094;52.130;5.598;2022-10-30T06:21:48;11.40;99.90
23717;DHT22;22094;52.130;5.598;2022-10-30T06:24:14;11.20;99.90
23717;DHT22;22094;52.130;5.598;2022-10-30T06:26:40;11.30;99.90
23717;DHT22;22094;52.130;5.598;2022-10-30T06:29:06;11.30;99.90
23717;DHT22;22094;52.130;5.598;2022-10-30T06:31:31;11.30;99.90
23717;DHT22;22094;52.130;5.598;2022-10-30T06:33:57;11.30;99.90
23717;DHT22;22094;52.130;5.598;2022-10-30T06:36:22;11.30;99.90
23717;DHT22;22094;52.130;5.598;2022-10-30T06:38:48;11.20;99.90
23717;DHT22;22094;52.130;5.598;2022-10-30T06:41:13;11.30;99.90
23717;DHT22;22094;52.130;5.598;2022-10-30T06:43:39;11.40;99.90
23717;DHT22;22094;52.130;5.598;2022-10-30T06:46:04;11.40;99.90
23717;DHT22;22094;52.130;5.598;2022-10-30T06:48:30;11.40;99.90
23717;DHT22;22094;52.130;5.598;2022-10-30T06:50:57;11.20;99.90
23717;DHT22;22094;52.130;5.598;2022-10-30T06:53:23;11.30;99.90
23717;DHT22;22094;52.130;5.598;2022-10-30T06:56:00;11.30;99.90
23717;DHT22;22094;52.130;5.598;2022-10-30T06:58:26;11.30;99.90
23717;DHT22;22094;52.130;5.598;2022-10-30T07:00:52;11.20;99.90
23717;DHT22;22094;52.130;5.598;2022-10-30T07:03:18;11.20;99.90
23717;DHT22;22094;52.130;5.598;2022-10-30T07:05:43;11.10;99.90
23717;DHT22;22094;52.130;5.598;2022-10-30T07:08:09;11.20;99.90
23717;DHT22;22094;52.130;5.598;2022-10-30T07:10:35;12.00;99.90
23717;DHT22;22094;52.130;5.598;2022-10-30T07:13:01;11.40;99.90
23717;DHT22;22094;52.130;5.598;2022-10-30T07:15:26;11.30;99.90
23717;DHT22;22094;52.130;5.598;2022-10-30T07:20:18;11.40;99.90
23717;DHT22;22094;52.130;5.598;2022-10-30T07:22:44;11.70;99.90
23717;DHT22;22094;52.130;5.598;2022-10-30T07:25:10;11.50;99.90
23717;DHT22;22094;52.130;5.598;2022-10-30T07:27:47;11.40;99.90
23717;DHT22;22094;52.130;5.598;2022-10-30T07:30:14;11.60;99.90
23717;DHT22;22094;52.130;5.598;2022-10-30T07:32:41;11.60;99.90
23717;DHT22;22094;52.130;5.598;2022-10-30T07:35:08;11.80;99.90
23717;DHT22;22094;52.130;5.598;2022-10-30T07:40:00;11.60;99.90
23717;DHT22;22094;52.130;5.598;2022-10-30T07:42:26;11.70;99.90
23717;DHT22;22094;52.130;5.598;2022-10-30T07:44:51;14.70;99.90
23717;DHT22;22094;52.130;5.598;2022-10-30T07:49:43;14.50;99.90
23717;DHT22;22094;52.130;5.598;2022-10-30T07:52:08;12.20;99.90
23717;DHT22;22094;52.130;5.598;2022-10-30T07:59:26;14.70;99.90
23717;DHT22;22094;52.130;5.598;2022-10-30T08:04:17;12.80;99.90
23717;DHT22;22094;52.130;5.598;2022-10-30T08:06:43;12.70;99.90
23717;DHT22;22094;52.130;5.598;2022-10-30T08:11:37;13.10;99.90
23717;DHT22;22094;52.130;5.598;2022-10-30T08:14:02;13.30;99.90
23717;DHT22;22094;52.130;5.598;2022-10-30T08:16:28;13.50;99.90
23717;DHT22;22094;52.130;5.598;2022-10-30T08:21:20;14.40;99.90
23717;DHT22;22094;52.130;5.598;2022-10-30T08:23:49;15.30;99.90
23717;DHT22;22094;52.130;5.598;2022-10-30T08:26:16;14.30;99.90
23717;DHT22;22094;52.130;5.598;2022-10-30T08:28:41;14.20;99.90
23717;DHT22;22094;52.130;5.598;2022-10-30T08:33:33;14.50;99.90
23717;DHT22;22094;52.130;5.598;2022-10-30T08:35:59;15.60;99.90
23717;DHT22;22094;52.130;5.598;2022-10-30T08:38:27;15.00;99.90
23717;DHT22;22094;52.130;5.598;2022-10-30T08:40:54;14.90;99.90
23717;DHT22;22094;52.130;5.598;2022-10-30T08:43:20;14.90;99.90
23717;DHT22;22094;52.130;5.598;2022-10-30T08:48:14;15.40;99.90
23717;DHT22;22094;52.130;5.598;2022-10-30T08:50:40;15.70;99.90
23717;DHT22;22094;52.130;5.598;2022-10-30T08:53:09;15.80;99.90
23717;DHT22;22094;52.130;5.598;2022-10-30T08:55:35;15.90;99.90
23717;DHT22;22094;52.130;5.598;2022-10-30T08:58:00;14.60;99.90
23717;DHT22;22094;52.130;5.598;2022-10-30T09:00:26;16.00;99.90
23717;DHT22;22094;52.130;5.598;2022-10-30T09:02:52;14.90;99.90
23717;DHT22;22094;52.130;5.598;2022-10-30T09:05:18;15.60;99.90
23717;DHT22;22094;52.130;5.598;2022-10-30T09:12:36;19.10;99.90
23717;DHT22;22094;52.130;5.598;2022-10-30T09:15:02;19.10;99.90
23717;DHT22;22094;52.130;5.598;2022-10-30T09:17:28;17.20;99.90
23717;DHT22;22094;52.130;5.598;2022-10-30T09:19:53;17.10;99.90
23717;DHT22;22094;52.130;5.598;2022-10-30T09:22:19;17.30;99.90
23717;DHT22;22094;52.130;5.598;2022-10-30T09:32:03;16.70;99.90
23717;DHT22;22094;52.130;5.598;2022-10-30T09:48:00;18.00;99.90
23717;DHT22;22094;52.130;5.598;2022-10-30T09:50:37;17.90;99.90
23717;DHT22;22094;52.130;5.598;2022-10-30T09:53:24;18.00;99.90
23717;DHT22;22094;52.130;5.598;2022-10-30T09:56:11;18.20;99.90
23717;DHT22;22094;52.130;5.598;2022-10-30T09:59:14;18.40;99.90
23717;DHT22;22094;52.130;5.598;2022-10-30T10:01:54;17.20;99.90
23717;DHT22;22094;52.130;5.598;2022-10-30T10:04:50;17.20;99.90
23717;DHT22;22094;52.130;5.598;2022-10-30T10:07:32;18.60;99.90
23717;DHT22;22094;52.130;5.598;2022-10-30T10:10:11;18.70;99.90
23717;DHT22;22094;52.130;5.598;2022-10-30T10:12:43;18.70;99.90
23717;DHT22;22094;52.130;5.598;2022-10-30T10:15:15;18.70;99.90
23717;DHT22;22094;52.130;5.598;2022-10-30T10:20:36;18.80;99.90
23717;DHT22;22094;52.130;5.598;2022-10-30T10:23:16;18.70;99.90
23717;DHT22;22094;52.130;5.598;2022-10-30T10:25:53;18.80;99.90
23717;DHT22;22094;52.130;5.598;2022-10-30T10:36:22;20.90;99.90
23717;DHT22;22094;52.130;5.598;2022-10-30T10:52:09;19.80;99.90
23717;DHT22;22094;52.130;5.598;2022-10-30T10:54:42;19.70;99.90
23717;DHT22;22094;52.130;5.598;2022-10-30T10:57:15;19.70;99.90
23717;DHT22;22094;52.130;5.598;2022-10-30T10:59:45;19.60;99.90
23717;DHT22;22094;52.130;5.598;2022-10-30T11:02:28;19.80;99.90
23717;DHT22;22094;52.130;5.598;2022-10-30T11:05:15;20.00;99.90
23717;DHT22;22094;52.130;5.598;2022-10-30T11:07:47;19.70;99.90
23717;DHT22;22094;52.130;5.598;2022-10-30T11:10:15;20.20;99.90
23717;DHT22;22094;52.130;5.598;2022-10-30T11:18:00;19.90;99.90
23717;DHT22;22094;52.130;5.598;2022-10-30T11:23:47;20.30;99.90
23717;DHT22;22094;52.130;5.598;2022-10-30T11:28:48;20.50;99.90
23717;DHT22;22094;52.130;5.598;2022-10-30T11:31:21;20.50;99.90
23717;DHT22;22094;52.130;5.598;2022-10-30T11:33:47;20.50;99.90
23717;DHT22;22094;52.130;5.598;2022-10-30T11:36:15;20.50;99.90
23717;DHT22;22094;52.130;5.598;2022-10-30T11:41:07;20.80;99.90
23717;DHT22;22094;52.130;5.598;2022-10-30T11:43:38;20.90;99.90
23717;DHT22;22094;52.130;5.598;2022-10-30T11:48:37;21.50;99.90
23717;DHT22;22094;52.130;5.598;2022-10-30T11:53:41;21.40;99.90
23717;DHT22;22094;52.130;5.598;2022-10-30T11:56:18;20.90;99.90
23717;DHT22;22094;52.130;5.598;2022-10-30T11:58:55;21.60;99.90
23717;DHT22;22094;52.130;5.598;2022-10-30T12:01:28;22.30;99.90
23717;DHT22;22094;52.130;5.598;2022-10-30T12:03:54;22.70;99.90
23717;DHT22;22094;52.130;5.598;2022-10-30T12:06:27;21.50;99.90
23717;DHT22;22094;52.130;5.598;2022-10-30T12:09:21;21.50;99.90
23717;DHT22;22094;52.130;5.598;2022-10-30T12:11:47;21.80;99.90
23717;DHT22;22094;52.130;5.598;2022-10-30T12:14:20;21.50;99.90
23717;DHT22;22094;52.130;5.598;2022-10-30T12:16:47;21.50;99.90
23717;DHT22;22094;52.130;5.598;2022-10-30T12:19:15;21.70;99.90
23717;DHT22;22094;52.130;5.598;2022-10-30T12:21:51;21.70;99.90
23717;DHT22;22094;52.130;5.598;2022-10-30T12:24:29;24.10;99.90
23717;DHT22;22094;52.130;5.598;2022-10-30T12:27:00;21.70;99.90
23717;DHT22;22094;52.130;5.598;2022-10-30T12:29:46;21.90;99.90
23717;DHT22;22094;52.130;5.598;2022-10-30T12:32:18;21.80;99.90
23717;DHT22;22094;52.130;5.598;2022-10-30T12:37:30;21.90;99.90
23717;DHT22;22094;52.130;5.598;2022-10-30T12:42:30;21.90;99.90
23717;DHT22;22094;52.130;5.598;2022-10-30T12:45:12;22.70;99.90
23717;DHT22;22094;52.130;5.598;2022-10-30T12:53:29;21.50;99.90
23717;DHT22;22094;52.130;5.598;2022-10-30T12:56:08;22.20;99.90
23717;DHT22;22094;52.130;5.598;2022-10-30T12:58:45;21.70;99.90
23717;DHT22;22094;52.130;5.598;2022-10-30T13:01:33;21.60;99.90
23717;DHT22;22094;52.130;5.598;2022-10-30T13:04:17;21.70;99.90
23717;DHT22;22094;52.130;5.598;2022-10-30T13:07:10;21.60;99.90
23717;DHT22;22094;52.130;5.598;2022-10-30T13:09:39;23.40;99.90
23717;DHT22;22094;52.130;5.598;2022-10-30T13:12:18;21.90;99.90
23717;DHT22;22094;52.130;5.598;2022-10-30T13:14:55;21.90;99.90
23717;DHT22;22094;52.130;5.598;2022-10-30T13:17:22;21.90;99.90
23717;DHT22;22094;52.130;5.598;2022-10-30T13:19:49;21.80;99.90
23717;DHT22;22094;52.130;5.598;2022-10-30T13:22:50;22.10;99.90
23717;DHT22;22094;52.130;5.598;2022-10-30T13:25:31;22.00;99.90
23717;DHT22;22094;52.130;5.598;2022-10-30T13:28:11;22.00;99.90
23717;DHT22;22094;52.130;5.598;2022-10-30T13:30:57;21.00;99.90
23717;DHT22;22094;52.130;5.598;2022-10-30T13:33:46;22.40;99.90
23717;DHT22;22094;52.130;5.598;2022-10-30T13:36:31;21.90;99.90
23717;DHT22;22094;52.130;5.598;2022-10-30T13:42:07;21.90;99.90
23717;DHT22;22094;52.130;5.598;2022-10-30T13:47:24;21.70;99.90
23717;DHT22;22094;52.130;5.598;2022-10-30T13:52:49;22.20;99.90
23717;DHT22;22094;52.130;5.598;2022-10-30T13:55:33;21.20;99.90
23717;DHT22;22094;52.130;5.598;2022-10-30T14:06:14;20.30;99.90
23717;DHT22;22094;52.130;5.598;2022-10-30T14:08:51;20.80;99.90
23717;DHT22;22094;52.130;5.598;2022-10-30T14:13:54;20.70;99.90
23717;DHT22;22094;52.130;5.598;2022-10-30T14:16:31;20.60;99.90
23717;DHT22;22094;52.130;5.598;2022-10-30T14:19:02;20.70;99.90
23717;DHT22;22094;52.130;5.598;2022-10-30T14:26:47;20.40;99.90
23717;DHT22;22094;52.130;5.598;2022-10-30T14:34:41;20.00;99.90
23717;DHT22;22094;52.130;5.598;2022-10-30T14:39:46;20.80;99.90
23717;DHT22;22094;52.130;5.598;2022-10-30T14:53:24;21.80;99.90
23717;DHT22;22094;52.130;5.598;2022-10-30T14:58:35;21.80;99.90
23717;DHT22;22094;52.130;5.598;2022-10-30T15:04:05;21.20;99.90
23717;DHT22;22094;52.130;5.598;2022-10-30T15:09:04;22.40;99.90
23717;DHT22;22094;52.130;5.598;2022-10-30T15:11:48;20.60;99.90
23717;DHT22;22094;52.130;5.598;2022-10-30T15:14:30;20.40;99.90
23717;DHT22;22094;52.130;5.598;2022-10-30T15:16:56;20.40;99.90
23717;DHT22;22094;52.130;5.598;2022-10-30T15:19:23;20.20;99.90
23717;DHT22;22094;52.130;5.598;2022-10-30T15:21:52;19.40;99.90
23717;DHT22;22094;52.130;5.598;2022-10-30T15:24:20;19.90;99.90
23717;DHT22;22094;52.130;5.598;2022-10-30T15:26:51;20.00;99.90
23717;DHT22;22094;52.130;5.598;2022-10-30T15:29:19;19.70;99.90
23717;DHT22;22094;52.130;5.598;2022-10-30T15:31:59;20.00;99.90
23717;DHT22;22094;52.130;5.598;2022-10-30T15:34:27;19.60;99.90
23717;DHT22;22094;52.130;5.598;2022-10-30T15:39:19;19.40;99.90
23717;DHT22;22094;52.130;5.598;2022-10-30T15:41:59;19.40;99.90
23717;DHT22;22094;52.130;5.598;2022-10-30T15:44:29;19.10;99.90
23717;DHT22;22094;52.130;5.598;2022-10-30T15:46:59;19.20;99.90
23717;DHT22;22094;52.130;5.598;2022-10-30T15:49:32;19.20;99.90
23717;DHT22;22094;52.130;5.598;2022-10-30T15:52:00;19.10;99.90
23717;DHT22;22094;52.130;5.598;2022-10-30T15:54:27;19.00;99.90
23717;DHT22;22094;52.130;5.598;2022-10-30T15:56:57;18.90;99.90
23717;DHT22;22094;52.130;5.598;2022-10-30T15:59:26;18.90;99.90
23717;DHT22;22094;52.130;5.598;2022-10-30T16:01:53;18.70;99.90
23717;DHT22;22094;52.130;5.598;2022-10-30T16:06:56;18.60;99.90
23717;DHT22;22094;52.130;5.598;2022-10-30T16:09:23;18.50;99.90
23717;DHT22;22094;52.130;5.598;2022-10-30T16:11:51;18.50;99.90
23717;DHT22;22094;52.130;5.598;2022-10-30T16:14:27;18.40;99.90
23717;DHT22;22094;52.130;5.598;2022-10-30T16:16:58;18.20;99.90
23717;DHT22;22094;52.130;5.598;2022-10-30T16:19:30;18.20;99.90
23717;DHT22;22094;52.130;5.598;2022-10-30T16:21:58;18.10;99.90
23717;DHT22;22094;52.130;5.598;2022-10-30T16:24:32;18.00;99.90
23717;DHT22;22094;52.130;5.598;2022-10-30T16:27:26;18.00;99.90
23717;DHT22;22094;52.130;5.598;2022-10-30T16:29:54;18.00;99.90
23717;DHT22;22094;52.130;5.598;2022-10-30T16:32:23;18.00;99.90
23717;DHT22;22094;52.130;5.598;2022-10-30T16:34:50;18.00;99.90
23717;DHT22;22094;52.130;5.598;2022-10-30T16:39:44;17.90;99.90
23717;DHT22;22094;52.130;5.598;2022-10-30T16:42:23;17.90;99.90
23717;DHT22;22094;52.130;5.598;2022-10-30T16:44:49;17.90;99.90
23717;DHT22;22094;52.130;5.598;2022-10-30T16:49:53;17.80;99.90
23717;DHT22;22094;52.130;5.598;2022-10-30T16:52:24;17.70;99.90
23717;DHT22;22094;52.130;5.598;2022-10-30T16:55:17;17.70;99.90
23717;DHT22;22094;52.130;5.598;2022-10-30T16:57:42;17.60;99.90
23717;DHT22;22094;52.130;5.598;2022-10-30T17:00:20;17.60;99.90
23717;DHT22;22094;52.130;5.598;2022-10-30T17:02:48;17.50;99.90
23717;DHT22;22094;52.130;5.598;2022-10-30T17:07:54;17.40;99.90
23717;DHT22;22094;52.130;5.598;2022-10-30T17:10:56;17.50;99.90
23717;DHT22;22094;52.130;5.598;2022-10-30T17:13:38;17.40;99.90
23717;DHT22;22094;52.130;5.598;2022-10-30T17:16:28;17.30;99.90
23717;DHT22;22094;52.130;5.598;2022-10-30T17:18:56;17.30;99.90
23717;DHT22;22094;52.130;5.598;2022-10-30T17:21:37;17.20;99.90
23717;DHT22;22094;52.130;5.598;2022-10-30T17:24:04;17.20;99.90
23717;DHT22;22094;52.130;5.598;2022-10-30T17:26:35;17.10;99.90
23717;DHT22;22094;52.130;5.598;2022-10-30T17:29:03;17.10;99.90
23717;DHT22;22094;52.130;5.598;2022-10-30T17:34:14;17.10;99.90
23717;DHT22;22094;52.130;5.598;2022-10-30T17:36:39;17.00;99.90
23717;DHT22;22094;52.130;5.598;2022-10-30T17:39:06;16.90;99.90
23717;DHT22;22094;52.130;5.598;2022-10-30T17:41:31;16.90;99.90
23717;DHT22;22094;52.130;5.598;2022-10-30T17:43:57;16.90;99.90
23717;DHT22;22094;52.130;5.598;2022-10-30T17:46:23;16.70;99.90
23717;DHT22;22094;52.130;5.598;2022-10-30T17:48:49;16.70;99.90
23717;DHT22;22094;52.130;5.598;2022-10-30T17:51:16;16.60;99.90
23717;DHT22;22094;52.130;5.598;2022-10-30T17:53:42;16.60;99.90
23717;DHT22;22094;52.130;5.598;2022-10-30T17:56:24;16.60;99.90
23717;DHT22;22094;52.130;5.598;2022-10-30T17:58:50;16.50;99.90
23717;DHT22;22094;52.130;5.598;2022-10-30T18:01:18;16.40;99.90
23717;DHT22;22094;52.130;5.598;2022-10-30T18:03:44;16.30;99.90
23717;DHT22;22094;52.130;5.598;2022-10-30T18:06:18;16.40;99.90
23717;DHT22;22094;52.130;5.598;2022-10-30T18:08:44;16.30;99.90
23717;DHT22;22094;52.130;5.598;2022-10-30T18:11:11;16.20;99.90
23717;DHT22;22094;52.130;5.598;2022-10-30T18:13:37;16.10;99.90
23717;DHT22;22094;52.130;5.598;2022-10-30T18:16:03;16.10;99.90
23717;DHT22;22094;52.130;5.598;2022-10-30T18:18:28;16.00;99.90
23717;DHT22;22094;52.130;5.598;2022-10-30T18:20:54;16.00;99.90
23717;DHT22;22094;52.130;5.598;2022-10-30T18:23:22;15.90;99.90
23717;DHT22;22094;52.130;5.598;2022-10-30T18:25:49;15.90;99.90
23717;DHT22;22094;52.130;5.598;2022-10-30T18:28:15;16.10;99.90
23717;DHT22;22094;52.130;5.598;2022-10-30T18:30:44;15.80;99.90
23717;DHT22;22094;52.130;5.598;2022-10-30T18:33:11;15.80;99.90
23717;DHT22;22094;52.130;5.598;2022-10-30T18:35:38;15.70;99.90
23717;DHT22;22094;52.130;5.598;2022-10-30T18:38:04;15.70;99.90
23717;DHT22;22094;52.130;5.598;2022-10-30T18:40:31;15.60;99.90
23717;DHT22;22094;52.130;5.598;2022-10-30T18:42:57;15.50;99.90
23717;DHT22;22094;52.130;5.598;2022-10-30T18:45:28;15.40;99.90
23717;DHT22;22094;52.130;5.598;2022-10-30T18:47:54;15.40;99.90
23717;DHT22;22094;52.130;5.598;2022-10-30T18:50:21;15.30;99.90
23717;DHT22;22094;52.130;5.598;2022-10-30T18:52:47;15.20;99.90
23717;DHT22;22094;52.130;5.598;2022-10-30T18:55:22;15.20;99.90